Aviation Digital Data Service (ADDS)

Output produced by METARs form (1236 UTC 29 August 2015)
found at http://aviationweather.gov/adds/metars/
 
KIAD 291137Z 2912/3018 19004KT P6SM SCT060 
     FM301200 00000KT P6SM SCT120